createdAt,value
2018-06-16T00:01:30.331Z,16.80
2018-06-16T00:04:55.072Z,16.70
2018-06-16T00:08:19.788Z,16.70
2018-06-16T00:11:44.555Z,16.70
2018-06-16T00:15:09.260Z,16.60
2018-06-16T00:18:33.910Z,16.70
2018-06-16T00:21:58.578Z,16.70
2018-06-16T00:25:23.321Z,16.60
2018-06-16T00:32:12.426Z,16.50
2018-06-16T00:35:37.187Z,16.40
2018-06-16T00:39:01.882Z,16.40
2018-06-16T00:42:26.608Z,16.40
2018-06-16T00:45:51.356Z,16.40
2018-06-16T00:49:15.949Z,16.30
2018-06-16T00:52:40.722Z,16.30
2018-06-16T00:56:05.582Z,16.20
2018-06-16T00:59:30.290Z,16.10
2018-06-16T01:02:54.964Z,16.10
2018-06-16T01:06:19.727Z,16.00
2018-06-16T01:09:44.558Z,16.00
2018-06-16T01:13:09.242Z,15.90
2018-06-16T01:16:34.501Z,15.80
2018-06-16T01:20:00.307Z,15.70
2018-06-16T01:23:24.959Z,15.60
2018-06-16T01:26:49.625Z,15.70
2018-06-16T01:30:14.308Z,15.70
2018-06-16T01:33:38.957Z,15.70
2018-06-16T01:37:03.589Z,15.60
2018-06-16T01:43:52.601Z,15.50
2018-06-16T01:47:17.246Z,15.40
2018-06-16T01:50:41.929Z,15.50
2018-06-16T01:54:06.531Z,15.40
2018-06-16T01:57:31.225Z,15.30
2018-06-16T02:00:55.948Z,15.30
2018-06-16T02:04:20.557Z,15.30
2018-06-16T02:07:45.229Z,15.30
2018-06-16T02:11:09.826Z,15.10
2018-06-16T02:14:34.537Z,15.10
2018-06-16T02:17:59.188Z,15.10
2018-06-16T02:21:23.846Z,15.10
2018-06-16T02:24:48.517Z,15.00
2018-06-16T02:28:13.133Z,15.00
2018-06-16T02:31:37.793Z,14.90
2018-06-16T02:35:02.471Z,14.90
2018-06-16T02:38:27.174Z,14.90
2018-06-16T02:41:51.865Z,14.90
2018-06-16T02:45:16.556Z,14.90
2018-06-16T02:48:41.195Z,14.80
2018-06-16T02:52:06.186Z,14.80
2018-06-16T02:55:30.905Z,14.70
2018-06-16T02:58:55.631Z,14.80
2018-06-16T03:02:20.247Z,14.80
2018-06-16T03:05:44.915Z,14.80
2018-06-16T03:09:10.369Z,14.70
2018-06-16T03:15:59.426Z,14.70
2018-06-16T03:19:24.101Z,14.70
2018-06-16T03:22:48.844Z,14.80
2018-06-16T03:26:13.511Z,14.70
2018-06-16T03:29:38.153Z,14.70
2018-06-16T03:33:02.756Z,14.50
2018-06-16T03:36:27.437Z,14.50
2018-06-16T03:39:52.129Z,14.40
2018-06-16T03:43:16.789Z,14.40
2018-06-16T03:46:41.531Z,14.40
2018-06-16T03:50:06.421Z,14.40
2018-06-16T03:53:31.162Z,14.40
2018-06-16T03:56:56.229Z,14.40
2018-06-16T04:00:20.931Z,14.40
2018-06-16T04:03:45.621Z,14.40
2018-06-16T04:07:10.263Z,14.40
2018-06-16T04:10:34.935Z,14.40
2018-06-16T04:13:59.593Z,14.50
2018-06-16T04:17:24.249Z,14.60
2018-06-16T04:20:48.951Z,14.60
2018-06-16T04:24:13.710Z,14.80
2018-06-16T04:27:38.486Z,14.80
2018-06-16T04:34:27.517Z,14.80
2018-06-16T04:37:52.331Z,14.90
2018-06-16T04:41:16.980Z,14.90
2018-06-16T04:44:41.621Z,15.00
2018-06-16T04:48:06.387Z,15.00
2018-06-16T04:51:31.041Z,15.00
2018-06-16T04:54:55.725Z,15.10
2018-06-16T04:58:20.411Z,15.20
2018-06-16T05:01:45.067Z,15.20
2018-06-16T05:05:09.801Z,15.40
2018-06-16T05:08:34.482Z,15.40
2018-06-16T05:11:59.252Z,15.50
2018-06-16T05:15:23.916Z,15.70
2018-06-16T05:18:48.616Z,15.70
2018-06-16T05:22:13.331Z,15.80
2018-06-16T05:25:38.017Z,15.90
2018-06-16T05:29:02.692Z,16.10
2018-06-16T05:32:27.332Z,16.20
2018-06-16T05:35:52.043Z,16.30
2018-06-16T05:42:41.051Z,16.50
2018-06-16T05:46:05.935Z,16.50
2018-06-16T05:49:30.739Z,16.60
2018-06-16T05:52:55.390Z,16.60
2018-06-16T05:59:44.602Z,16.80
2018-06-16T06:03:09.321Z,16.80
2018-06-16T06:06:33.999Z,16.80
2018-06-16T06:09:58.683Z,16.90
2018-06-16T06:13:23.435Z,17.00
2018-06-16T06:16:48.189Z,17.00
2018-06-16T06:23:37.265Z,17.10
2018-06-16T06:27:01.983Z,17.10
2018-06-16T06:30:26.935Z,17.30
2018-06-16T06:33:51.762Z,17.40
2018-06-16T06:37:16.545Z,17.40
2018-06-16T06:40:41.373Z,17.50
2018-06-16T06:44:06.333Z,17.50
2018-06-16T06:47:31.041Z,17.60
2018-06-16T06:50:56.303Z,17.70
2018-06-16T06:54:20.969Z,17.90
2018-06-16T06:57:45.719Z,18.10
2018-06-16T07:01:10.648Z,18.20
2018-06-16T07:04:35.372Z,18.30
2018-06-16T07:08:00.157Z,18.40
2018-06-16T07:11:24.913Z,18.30
2018-06-16T07:14:49.770Z,18.50
2018-06-16T07:18:14.594Z,18.70
2018-06-16T07:25:03.759Z,18.80
2018-06-16T07:28:28.602Z,18.90
2018-06-16T07:31:53.641Z,19.00
2018-06-16T07:38:42.771Z,19.40
2018-06-16T07:42:07.505Z,19.50
2018-06-16T07:45:32.188Z,19.60
2018-06-16T07:52:21.149Z,19.90
2018-06-16T07:55:45.869Z,20.00
2018-06-16T07:59:10.666Z,20.20
2018-06-16T08:02:35.499Z,20.40
2018-06-16T08:06:00.301Z,20.20
2018-06-16T08:09:25.054Z,20.30
2018-06-16T08:12:49.996Z,20.40
2018-06-16T08:16:14.683Z,20.50
2018-06-16T08:19:39.458Z,20.60
2018-06-16T08:26:28.630Z,20.80
2018-06-16T08:29:53.410Z,21.00
2018-06-16T08:33:18.146Z,21.10
2018-06-16T08:36:42.914Z,21.30
2018-06-16T08:40:07.704Z,21.30
2018-06-16T08:46:56.903Z,21.40
2018-06-16T08:50:21.702Z,21.40
2018-06-16T08:53:46.505Z,21.60
2018-06-16T08:57:11.253Z,21.70
2018-06-16T09:00:36.098Z,21.70
2018-06-16T09:04:00.772Z,21.80
2018-06-16T09:07:25.468Z,21.80
2018-06-16T09:14:14.661Z,21.90
2018-06-16T09:17:39.563Z,21.90
2018-06-16T09:24:29.969Z,22.20
2018-06-16T09:27:54.740Z,22.50
2018-06-16T09:34:43.668Z,22.70
2018-06-16T09:38:08.422Z,22.90
2018-06-16T09:41:33.126Z,22.70
2018-06-16T09:44:57.858Z,23.00
2018-06-16T09:48:22.545Z,23.00
2018-06-16T09:51:47.336Z,23.10
2018-06-16T09:55:13.733Z,23.40
2018-06-16T09:58:38.448Z,23.30
2018-06-16T10:02:03.142Z,23.30
2018-06-16T10:05:27.974Z,23.20
2018-06-16T10:08:52.813Z,23.30
2018-06-16T10:12:17.546Z,23.30
2018-06-16T10:15:42.292Z,23.20
2018-06-16T10:19:07.053Z,23.20
2018-06-16T10:22:31.846Z,23.30
2018-06-16T10:25:56.651Z,23.30
2018-06-16T10:29:21.401Z,23.40
2018-06-16T10:32:46.173Z,23.30
2018-06-16T10:36:10.887Z,23.40
2018-06-16T10:39:35.673Z,23.60
2018-06-16T10:46:25.106Z,23.70
2018-06-16T10:49:50.103Z,23.80
2018-06-16T10:53:14.852Z,23.70
2018-06-16T10:56:39.597Z,23.90
2018-06-16T11:00:04.483Z,24.00
2018-06-16T11:03:29.290Z,24.10
2018-06-16T11:06:54.095Z,24.40
2018-06-16T11:10:19.181Z,24.30
2018-06-16T11:17:08.416Z,24.50
2018-06-16T11:20:33.331Z,24.80
2018-06-16T11:30:48.044Z,24.90
2018-06-16T11:34:12.879Z,25.00
2018-06-16T11:41:02.172Z,25.20
2018-06-16T11:44:26.903Z,25.40
2018-06-16T11:47:51.657Z,25.50
2018-06-16T11:51:16.646Z,25.20
2018-06-16T11:54:41.428Z,25.30
2018-06-16T11:58:06.328Z,25.40
2018-06-16T12:01:32.140Z,25.30
2018-06-16T12:04:56.901Z,25.50
2018-06-16T12:08:21.607Z,25.60
2018-06-16T12:11:46.350Z,25.70
2018-06-16T12:15:11.174Z,26.00
2018-06-16T12:28:49.051Z,26.10
2018-06-16T12:32:13.841Z,26.50
2018-06-16T12:35:39.011Z,26.30
2018-06-16T12:42:28.701Z,26.10
2018-06-16T12:45:53.443Z,26.30
2018-06-16T12:49:18.219Z,26.50
2018-06-16T12:52:42.936Z,26.70
2018-06-16T12:56:07.700Z,26.70
2018-06-16T13:02:56.718Z,26.90
2018-06-16T13:06:21.561Z,27.00
2018-06-16T13:09:46.341Z,26.60
2018-06-16T13:13:11.013Z,26.50
2018-06-16T13:16:35.823Z,26.30
2018-06-16T13:26:49.349Z,26.90
2018-06-16T13:30:14.022Z,27.10
2018-06-16T13:33:38.701Z,27.50
2018-06-16T13:37:03.476Z,27.20
2018-06-16T13:40:28.157Z,27.50
2018-06-16T13:43:52.856Z,27.50
2018-06-16T13:47:17.904Z,27.10
2018-06-16T13:50:42.847Z,27.20
2018-06-16T13:54:07.586Z,26.80
2018-06-16T14:00:56.679Z,26.90
2018-06-16T14:04:21.442Z,26.70
2018-06-16T14:07:46.108Z,26.90
2018-06-16T14:11:10.838Z,26.70
2018-06-16T14:14:35.507Z,26.90
2018-06-16T14:18:00.265Z,26.90
2018-06-16T14:21:24.987Z,27.00
2018-06-16T14:24:49.772Z,27.00
2018-06-16T14:28:14.437Z,27.30
2018-06-16T14:31:39.236Z,27.30
2018-06-16T14:35:04.059Z,27.20
2018-06-16T14:38:28.689Z,27.10
2018-06-16T14:41:53.392Z,27.00
2018-06-16T14:45:18.114Z,27.40
2018-06-16T14:48:42.865Z,27.50
2018-06-16T14:55:31.924Z,27.40
2018-06-16T14:58:56.647Z,27.10
2018-06-16T15:02:21.360Z,27.00
2018-06-16T15:05:46.046Z,27.10
2018-06-16T15:09:11.673Z,27.30
2018-06-16T15:12:36.266Z,27.20
2018-06-16T15:16:00.976Z,27.50
2018-06-16T15:22:50.077Z,28.00
2018-06-16T15:26:14.757Z,28.10
2018-06-16T15:29:39.550Z,28.10
2018-06-16T15:33:04.332Z,28.00
2018-06-16T15:36:29.208Z,28.60
2018-06-16T15:39:54.070Z,28.80
2018-06-16T15:43:18.831Z,28.60
2018-06-16T15:46:43.532Z,28.70
2018-06-16T15:50:08.154Z,28.60
2018-06-16T15:56:57.306Z,28.70
2018-06-16T16:00:22.043Z,29.20
2018-06-16T16:03:47.052Z,29.00
2018-06-16T16:10:36.197Z,29.10
2018-06-16T16:14:01.001Z,29.00
2018-06-16T16:17:25.640Z,28.80
2018-06-16T16:20:50.305Z,28.90
2018-06-16T16:24:14.979Z,28.80
2018-06-16T16:34:28.383Z,26.90
2018-06-16T16:44:41.677Z,27.60
2018-06-16T16:48:06.373Z,28.50
2018-06-16T16:51:31.130Z,28.70
2018-06-16T16:54:55.843Z,28.10
2018-06-16T16:58:20.543Z,27.90
2018-06-16T17:01:45.295Z,28.20
2018-06-16T17:05:10.005Z,28.00
2018-06-16T17:11:59.065Z,27.50
2018-06-16T17:18:48.060Z,26.80
2018-06-16T17:22:12.719Z,27.40
2018-06-16T17:25:37.455Z,27.70
2018-06-16T17:32:26.437Z,28.30
2018-06-16T17:35:51.075Z,27.50
2018-06-16T17:39:15.729Z,27.00
2018-06-16T17:42:40.350Z,27.00
2018-06-16T17:46:05.010Z,27.40
2018-06-16T17:49:29.688Z,27.30
2018-06-16T17:52:54.355Z,26.90
2018-06-16T17:56:19.123Z,27.00
2018-06-16T17:59:43.919Z,27.20
2018-06-16T18:03:08.655Z,27.20
2018-06-16T18:06:33.500Z,27.30
2018-06-16T18:09:58.161Z,27.10
2018-06-16T18:13:22.859Z,27.10
2018-06-16T18:20:11.972Z,26.70
2018-06-16T18:23:36.705Z,26.80
2018-06-16T18:27:01.452Z,26.50
2018-06-16T18:30:26.052Z,26.30
2018-06-16T18:33:50.849Z,25.90
2018-06-16T18:37:15.653Z,25.70
2018-06-16T18:40:40.295Z,25.50
2018-06-16T18:44:05.389Z,25.20
2018-06-16T18:50:54.645Z,24.50
2018-06-16T18:54:19.329Z,24.40
2018-06-16T18:57:45.331Z,24.30
2018-06-16T19:01:10.445Z,24.10
2018-06-16T19:07:59.559Z,23.80
2018-06-16T19:11:24.327Z,23.80
2018-06-16T19:14:49.262Z,23.70
2018-06-16T19:18:13.971Z,23.50
2018-06-16T19:21:38.605Z,23.40
2018-06-16T19:25:03.425Z,23.40
2018-06-16T19:28:28.126Z,23.30
2018-06-16T19:31:52.976Z,23.20
2018-06-16T19:35:17.735Z,23.20
2018-06-16T19:38:42.415Z,23.20
2018-06-16T19:42:07.032Z,23.10
2018-06-16T19:45:31.720Z,23.00
2018-06-16T19:52:20.794Z,22.90
2018-06-16T19:55:45.476Z,22.80
2018-06-16T19:59:10.276Z,22.70
2018-06-16T20:05:59.607Z,22.50
2018-06-16T20:09:24.278Z,22.50
2018-06-16T20:12:48.975Z,22.40
2018-06-16T20:16:13.667Z,22.40
2018-06-16T20:19:38.331Z,22.30
2018-06-16T20:23:02.989Z,22.20
2018-06-16T20:26:27.631Z,22.10
2018-06-16T20:29:52.489Z,22.00
2018-06-16T20:33:17.144Z,21.90
2018-06-16T20:40:06.419Z,21.80
2018-06-16T20:43:31.126Z,21.80
2018-06-16T20:46:55.732Z,21.80
2018-06-16T20:50:20.429Z,21.70
2018-06-16T20:53:45.116Z,21.60
2018-06-16T20:57:09.777Z,21.50
2018-06-16T21:00:34.413Z,21.60
2018-06-16T21:03:59.464Z,21.50
2018-06-16T21:07:24.083Z,21.50
2018-06-16T21:10:48.737Z,21.40
2018-06-16T21:14:13.420Z,21.40
2018-06-16T21:21:02.401Z,21.30
2018-06-16T21:24:27.077Z,21.30
2018-06-16T21:27:51.791Z,21.20
2018-06-16T21:31:16.469Z,21.10
2018-06-16T21:34:41.213Z,21.10
2018-06-16T21:38:05.961Z,21.10
2018-06-16T21:41:30.629Z,21.00
2018-06-16T21:44:55.225Z,21.00
2018-06-16T21:48:20.006Z,21.00
2018-06-16T21:51:44.675Z,20.90
2018-06-16T21:55:09.307Z,20.80
2018-06-16T21:58:34.020Z,20.90
2018-06-16T22:01:58.759Z,20.80
2018-06-16T22:08:51.004Z,20.60
2018-06-16T22:12:15.713Z,20.50
2018-06-16T22:15:40.415Z,20.50
2018-06-16T22:19:05.109Z,20.40
2018-06-16T22:22:29.869Z,20.30
2018-06-16T22:25:54.545Z,20.20
2018-06-16T22:29:19.214Z,20.20
2018-06-16T22:32:43.854Z,20.10
2018-06-16T22:36:08.657Z,20.00
2018-06-16T22:39:33.439Z,20.00
2018-06-16T22:46:22.668Z,19.90
2018-06-16T22:49:47.587Z,19.90
2018-06-16T22:53:12.431Z,19.90
2018-06-16T22:56:37.196Z,19.90
2018-06-16T23:00:02.029Z,19.90
2018-06-16T23:03:26.770Z,19.90
2018-06-16T23:06:51.411Z,19.90
2018-06-16T23:10:16.090Z,19.90
2018-06-16T23:13:40.747Z,19.80
2018-06-16T23:17:05.588Z,19.80
2018-06-16T23:20:30.356Z,19.90
2018-06-16T23:23:55.117Z,19.90
2018-06-16T23:27:19.799Z,20.00
2018-06-16T23:30:44.520Z,20.00
2018-06-16T23:34:09.175Z,20.00
2018-06-16T23:37:33.883Z,20.00
2018-06-16T23:40:58.828Z,20.00
2018-06-16T23:44:23.499Z,20.00
2018-06-16T23:47:48.141Z,20.00
2018-06-16T23:54:37.141Z,19.90
2018-06-16T23:58:01.845Z,19.80
